Tropical Cyclones
[Index]
Main Index Home Page Stock Weather Photos Extreme Storms Discussion Storm News and Storm Chasing Reports Tropical Cyclones / Hurricanes / Typhoons Weather Data and Links Wild Fires / Bushfires Weather Observation Techniques Weather Picture Catalogue Tornado Pictures and Reports Stock Video Footage and DVDs for sale
Season 2009-2010 Tropical Cyclone SUBTROP-LOW-01 Track Map
Season 2009-2010 Summaries (Operational Data): [AU] [SIO] [SPAC] [SH]
<<- Previous TC | 2009-2010 Season | Next TC ->>

click for intensity scale information  Lat/long Grid: Show Hide

 Date Labels: Show Hide

Operational Tropical Cyclone Data

Name: SUBTROP-LOW-01
Number: 10PD

06 May 2010 00:00 UTC to 13 May 2010 06:00 UTC

    date/time    lat    long     hPa   cat  kts
2010-05-06 00   25.0   160.0    1007         30          
2010-05-06 06   25.0   160.0    1007    1    35          
2010-05-06 12   27.0   163.0    1005    1    35          
2010-05-06 18   28.0   164.0    1002    1    40          
2010-05-07 00   29.0   165.0    1000    1    40          
2010-05-07 06   30.0   165.0     994    1    40          
2010-05-07 12   32.0   166.0     994    2    50          
2010-05-07 18   32.0   166.0     986    2    50          
2010-05-08 00   32.0   167.0     988    2    50          
2010-05-08 06   33.0   167.0     988    2    50          
2010-05-08 12   32.0   168.0     989    1    40          
2010-05-08 18   32.0   169.0     990    1    40          
2010-05-09 00   32.0   170.0     993    1    40          
2010-05-09 06   31.0   170.0     992    1    40          
2010-05-09 12   32.0   170.0     993    1    40          
2010-05-09 18   31.0   171.0     993    1    40          
2010-05-10 00   31.0   170.0     996    1    40          
2010-05-10 06   31.0   170.0     992    1    40          
2010-05-10 12   31.0   170.0     997    1    40          
2010-05-10 18   31.0   170.0     995    1    40          
2010-05-11 00   31.0   170.0     996    1    40          
2010-05-11 06   31.0   170.0     996    1    40          
2010-05-11 12   32.0   171.0     994    1    40          
2010-05-11 18   33.0   170.0     991    1    40          
2010-05-12 00   34.0   170.0     990    1    40          
2010-05-12 06   37.0   170.0     989    1    40          
2010-05-12 12   39.0   170.0     985    2    50          
2010-05-12 18   43.0   170.0     983    1    40          
2010-05-13 00   44.0   165.0     991    2    50          
2010-05-13 06   45.0   164.0     989    2    50          
Winds are 10-min average.

Tropical cyclone tracks developed by Michael Bath using operational warnings and advisories and Google Maps.


[Australian Severe Weather index] [Copyright Notice] [Email Contacts] [Search This Site] [Privacy Policy]
Document: tropical_cyclone_subtrop-low-01.htm Updated: 28 May 2013